createdAt,value
2023-03-18T00:04:26.023Z,23.23
2023-03-18T00:09:28.709Z,23.33
2023-03-18T00:14:31.592Z,20.23
2023-03-18T00:19:34.193Z,21.40
2023-03-18T00:24:37.575Z,20.47
2023-03-18T00:29:40.114Z,26.73
2023-03-18T00:34:43.890Z,20.37
2023-03-18T00:39:46.815Z,21.23
2023-03-18T00:44:49.591Z,18.77
2023-03-18T00:49:52.519Z,20.00
2023-03-18T00:54:55.682Z,18.73
2023-03-18T00:59:59.462Z,17.00
2023-03-18T01:05:02.664Z,18.50
2023-03-18T01:10:06.471Z,19.90
2023-03-18T01:15:12.748Z,22.87
2023-03-18T01:20:18.100Z,21.83
2023-03-18T01:25:23.824Z,17.10
2023-03-18T01:30:29.214Z,18.63
2023-03-18T01:35:32.914Z,18.53
2023-03-18T01:40:37.411Z,20.80
2023-03-18T01:45:44.843Z,19.13
2023-03-18T01:50:53.176Z,17.23
2023-03-18T01:55:57.764Z,16.27
2023-03-18T02:01:32.063Z,18.83
2023-03-18T02:06:38.686Z,17.63
2023-03-18T02:11:45.196Z,17.13
2023-03-18T02:17:01.215Z,17.00
2023-03-18T02:22:29.410Z,21.37
2023-03-18T02:27:39.887Z,17.73
2023-03-18T02:32:45.518Z,15.07
2023-03-18T02:37:47.921Z,14.90
2023-03-18T02:42:52.946Z,14.33
2023-03-18T02:47:58.618Z,16.13
2023-03-18T02:53:04.618Z,14.40
2023-03-18T02:58:08.017Z,15.57
2023-03-18T03:03:11.375Z,13.47
2023-03-18T03:08:15.315Z,13.07
2023-03-18T03:13:23.170Z,14.90
2023-03-18T03:18:26.805Z,17.00
2023-03-18T03:23:29.475Z,16.67
2023-03-18T03:28:33.108Z,15.00
2023-03-18T03:33:36.730Z,21.13
2023-03-18T03:38:39.565Z,16.97
2023-03-18T03:43:42.321Z,17.67
2023-03-18T03:48:45.096Z,18.93
2023-03-18T03:53:49.405Z,16.20
2023-03-18T03:58:52.170Z,18.77
2023-03-18T04:03:55.890Z,17.17
2023-03-18T04:08:58.493Z,13.03
2023-03-18T04:14:01.253Z,15.03
2023-03-18T04:19:04.099Z,18.03
2023-03-18T04:24:07.029Z,14.80
2023-03-18T04:29:09.739Z,18.43
2023-03-18T04:34:12.363Z,16.27
2023-03-18T04:39:16.189Z,13.13
2023-03-18T04:44:19.424Z,21.20
2023-03-18T04:49:26.975Z,11.87
2023-03-18T04:54:31.127Z,16.67
2023-03-18T04:59:37.543Z,13.60
2023-03-18T05:04:42.842Z,11.40
2023-03-18T05:09:46.112Z,11.43
2023-03-18T05:14:50.149Z,12.10
2023-03-18T05:19:52.591Z,15.23
2023-03-18T05:24:58.067Z,27.87
2023-03-18T05:30:04.609Z,20.30
2023-03-18T05:35:15.330Z,31.37
2023-03-18T05:40:24.132Z,11.23
2023-03-18T05:45:40.602Z,10.57
2023-03-18T05:50:47.080Z,9.70
2023-03-18T05:55:54.133Z,11.43
2023-03-18T06:00:58.997Z,13.27
2023-03-18T06:06:02.034Z,11.67
2023-03-18T06:11:04.785Z,9.27
2023-03-18T06:16:08.861Z,23.20
2023-03-18T06:21:11.896Z,14.20
2023-03-18T06:26:14.437Z,11.77
2023-03-18T06:31:22.590Z,33.37
2023-03-18T06:36:26.698Z,10.47
2023-03-18T06:41:30.191Z,9.50
2023-03-18T06:46:50.202Z,13.27
2023-03-18T06:51:53.442Z,10.80
2023-03-18T06:56:56.425Z,11.67
2023-03-18T07:02:02.266Z,13.63
2023-03-18T07:07:05.995Z,10.53
2023-03-18T07:12:12.054Z,10.23
2023-03-18T07:17:15.059Z,13.20
2023-03-18T07:22:17.747Z,8.90
2023-03-18T07:27:20.722Z,10.33
2023-03-18T07:32:23.697Z,11.33
2023-03-18T07:37:26.269Z,10.47
2023-03-18T07:42:31.817Z,8.90
2023-03-18T07:47:34.264Z,7.67
2023-03-18T07:52:37.691Z,9.10
2023-03-18T07:57:40.891Z,6.83
2023-03-18T08:02:46.034Z,7.27
2023-03-18T08:07:48.808Z,7.63
2023-03-18T08:12:53.800Z,8.20
2023-03-18T08:17:56.668Z,9.03
2023-03-18T08:22:59.112Z,8.47
2023-03-18T08:28:01.651Z,7.70
2023-03-18T08:33:04.285Z,8.03
2023-03-18T08:38:23.899Z,9.73
2023-03-18T08:43:27.162Z,7.97
2023-03-18T08:48:30.709Z,6.93
2023-03-18T08:53:33.507Z,8.27
2023-03-18T08:58:36.419Z,8.40
2023-03-18T09:03:39.057Z,8.03
2023-03-18T09:08:41.827Z,8.53
2023-03-18T09:13:49.164Z,7.73
2023-03-18T09:18:51.522Z,8.77
2023-03-18T09:23:54.360Z,9.50
2023-03-18T09:28:57.393Z,7.67
2023-03-18T09:33:59.832Z,7.97
2023-03-18T09:39:02.289Z,7.67
2023-03-18T09:44:17.504Z,10.00
2023-03-18T09:49:53.142Z,8.40
2023-03-18T09:55:14.718Z,7.63
2023-03-18T10:00:34.603Z,7.63
2023-03-18T10:05:48.574Z,7.60
2023-03-18T10:10:51.157Z,7.00
2023-03-18T10:15:56.820Z,8.23
2023-03-18T10:21:20.658Z,8.33
2023-03-18T10:26:35.990Z,7.57
2023-03-18T10:32:42.527Z,8.40
2023-03-18T10:38:04.681Z,9.00
2023-03-18T10:43:17.548Z,8.10
2023-03-18T10:48:31.129Z,7.80
2023-03-18T10:53:43.505Z,7.97
2023-03-18T10:58:46.763Z,7.90
2023-03-18T11:04:03.538Z,7.70
2023-03-18T11:09:33.477Z,7.87
2023-03-18T11:14:37.577Z,7.27
2023-03-18T11:19:47.875Z,8.10
2023-03-18T11:25:13.140Z,7.33
2023-03-18T11:30:41.133Z,8.23
2023-03-18T11:35:59.613Z,8.27
2023-03-18T11:41:16.963Z,7.50
2023-03-18T11:46:21.516Z,8.03
2023-03-18T11:52:01.186Z,11.27
2023-03-18T11:57:15.728Z,7.63
2023-03-18T12:02:42.935Z,8.90
2023-03-18T12:07:51.111Z,7.43
2023-03-18T12:13:03.643Z,7.90
2023-03-18T12:18:22.555Z,243.57
2023-03-18T12:23:37.570Z,9.17
2023-03-18T12:28:49.463Z,7.93
2023-03-18T12:33:58.503Z,9.70
2023-03-18T12:39:19.862Z,9.30
2023-03-18T12:44:43.108Z,9.70
2023-03-18T12:49:59.348Z,7.30
2023-03-18T12:55:11.139Z,12.93
2023-03-18T13:00:19.097Z,8.20
2023-03-18T13:05:33.699Z,10.20
2023-03-18T13:10:37.577Z,8.83
2023-03-18T13:15:46.506Z,8.23
2023-03-18T13:20:51.853Z,10.23
2023-03-18T13:26:39.325Z,16.20
2023-03-18T13:32:04.805Z,36.70
2023-03-18T13:37:10.113Z,13.23
2023-03-18T13:42:30.667Z,15.93
2023-03-18T13:47:38.014Z,10.97
2023-03-18T13:52:44.478Z,10.47
2023-03-18T13:58:19.849Z,11.30
2023-03-18T14:03:42.320Z,11.90
2023-03-18T14:08:48.630Z,18.27
2023-03-18T14:13:52.065Z,13.97
2023-03-18T14:19:01.164Z,12.60
2023-03-18T14:24:15.548Z,14.63
2023-03-18T14:29:42.582Z,15.43
2023-03-18T14:35:18.557Z,20.97
2023-03-18T14:40:21.418Z,10.07
2023-03-18T14:45:33.687Z,9.40
2023-03-18T14:50:45.444Z,12.43
2023-03-18T14:55:49.797Z,12.30
2023-03-18T15:01:13.705Z,13.07
2023-03-18T15:06:20.325Z,12.73
2023-03-18T15:11:24.053Z,14.97
2023-03-18T15:16:26.593Z,16.70
2023-03-18T15:21:32.454Z,18.47
2023-03-18T15:26:38.651Z,17.43
2023-03-18T15:31:43.908Z,15.83
2023-03-18T15:36:59.642Z,13.20
2023-03-18T15:42:03.948Z,23.47
2023-03-18T15:47:22.430Z,21.23
2023-03-18T15:52:33.541Z,26.47
2023-03-18T15:57:40.396Z,28.30
2023-03-18T16:02:43.365Z,54.80
2023-03-18T16:07:46.874Z,67.73
2023-03-18T16:12:58.167Z,78.00
2023-03-18T16:18:01.086Z,72.97
2023-03-18T16:23:03.477Z,51.70
2023-03-18T16:28:06.116Z,50.47
2023-03-18T16:33:13.797Z,46.10
2023-03-18T16:38:17.819Z,42.37
2023-03-18T16:43:23.248Z,47.83
2023-03-18T16:48:27.073Z,66.63
2023-03-18T16:53:30.559Z,197.03
2023-03-18T16:58:35.405Z,163.20
2023-03-18T17:03:38.040Z,197.20
2023-03-18T17:08:40.888Z,222.33
2023-03-18T17:13:43.514Z,158.20
2023-03-18T17:18:45.934Z,136.93
2023-03-18T17:23:49.047Z,124.50
2023-03-18T17:28:54.009Z,114.87
2023-03-18T17:33:56.384Z,114.23
2023-03-18T17:39:00.186Z,115.77
2023-03-18T17:44:02.902Z,112.20
2023-03-18T17:49:11.902Z,128.43
2023-03-18T17:54:20.728Z,138.30
2023-03-18T17:59:23.164Z,127.23
2023-03-18T18:04:26.219Z,137.10
2023-03-18T18:09:28.632Z,149.57
2023-03-18T18:14:32.654Z,139.10
2023-03-18T18:19:36.171Z,126.93
2023-03-18T18:24:38.722Z,129.10
2023-03-18T18:29:43.612Z,136.60
2023-03-18T18:34:46.702Z,138.00
2023-03-18T18:39:49.205Z,146.37
2023-03-18T18:44:52.844Z,176.43
2023-03-18T18:49:55.280Z,208.40
2023-03-18T18:54:58.108Z,191.43
2023-03-18T19:00:00.631Z,214.27
2023-03-18T19:05:04.776Z,216.47
2023-03-18T19:10:10.786Z,228.77
2023-03-18T19:15:15.574Z,196.83
2023-03-18T19:20:30.514Z,176.10
2023-03-18T19:25:34.098Z,169.40
2023-03-18T19:30:37.220Z,161.07
2023-03-18T19:35:41.404Z,148.03
2023-03-18T19:40:43.993Z,134.53
2023-03-18T19:45:49.251Z,185.90
2023-03-18T19:50:53.031Z,150.03
2023-03-18T19:55:55.965Z,177.03
2023-03-18T20:01:00.377Z,136.40
2023-03-18T20:06:03.347Z,126.80
2023-03-18T20:11:05.969Z,124.73
2023-03-18T20:16:16.605Z,119.60
2023-03-18T20:21:31.045Z,121.17
2023-03-18T20:26:33.621Z,123.63
2023-03-18T20:31:36.390Z,118.30
2023-03-18T20:36:39.965Z,110.33
2023-03-18T20:41:42.423Z,107.10
2023-03-18T20:46:44.823Z,107.00
2023-03-18T20:51:47.220Z,105.90
2023-03-18T20:56:49.579Z,106.63
2023-03-18T21:01:52.091Z,107.17
2023-03-18T21:06:54.525Z,113.57
2023-03-18T21:11:56.914Z,113.33
2023-03-18T21:16:59.684Z,112.07
2023-03-18T21:22:02.106Z,114.40
2023-03-18T21:27:05.803Z,115.60
2023-03-18T21:32:34.195Z,123.10
2023-03-18T21:37:36.641Z,146.00
2023-03-18T21:42:41.214Z,164.80
2023-03-18T21:47:43.666Z,179.97
2023-03-18T21:52:46.763Z,183.13
2023-03-18T21:57:49.637Z,184.87
2023-03-18T22:02:52.132Z,197.43
2023-03-18T22:07:54.524Z,186.97
2023-03-18T22:12:57.517Z,197.07
2023-03-18T22:18:00.133Z,198.13
2023-03-18T22:23:13.571Z,204.53
2023-03-18T22:28:16.245Z,205.70
2023-03-18T22:33:23.632Z,207.37
2023-03-18T22:38:26.840Z,202.60
2023-03-18T22:43:33.475Z,201.93
2023-03-18T22:48:35.972Z,197.77
2023-03-18T22:53:41.136Z,197.03
2023-03-18T22:58:43.776Z,185.03
2023-03-18T23:03:47.575Z,182.03
2023-03-18T23:08:50.144Z,182.03
2023-03-18T23:13:53.303Z,176.13
2023-03-18T23:18:58.874Z,166.43
2023-03-18T23:24:01.278Z,159.27
2023-03-18T23:29:03.676Z,153.93
2023-03-18T23:34:06.082Z,148.77
2023-03-18T23:39:08.462Z,153.37
2023-03-18T23:44:10.918Z,146.27
2023-03-18T23:49:13.520Z,137.07
2023-03-18T23:54:16.047Z,132.43
2023-03-18T23:59:18.405Z,116.07
